首页
METAR-TAF:

METAR-TAF

机场 :

纳塔尔, 北里约格朗德, 巴西

纬度: 05-46-05S, 经度: 035-22-34W, 海拔: 88米

当前天气观测

该预报发布于43分钟前的14:00 UTC
风速9节,风向,在南转南东西南之间变化
温度 28°C
湿度 70%
气压
能见度10公里或以上
少量云层高于1800英尺
散云层高于2500英尺
多云层高于10000英尺

METAR: SBSG 251400Z 19009KT 160V220 9999 FEW018 SCT025 BKN100 28/22 Q1 014

时间: 11:43 (14:43 UTC)

预报

该预报发布于4小时和43分钟前的10:00 UTC
预报有效从25日的 12点(UTC)到 26日的 12点(UTC)
风速8节,风向南转南东
能见度10公里或以上
散云层高于2000英尺
几率 40% :
短暂存在
从 25日的 12点(UTC)到 25日的 14点(UTC)
能見度: 4000
散云层高于1200英尺
多云层高于1500英尺
少量云层高于3000英尺, 塔状积云.
阵雨
短暂存在
从 25日的 20点(UTC)到 25日的 23点(UTC)
能見度: 4000
多云层高于1200英尺

TAF: SBSG 251000Z 2512/2612 16008KT 9999 SCT020 TX30/2516Z TN23/2608Z PROB40 TEMPO 2512/2514 4000 SHRA SCT012 BKN015 FEW030TCU TEMPO 2520/2523 4000 RA BKN012 RMK PCH

超过4000个机场的气象观测和天气预报(METAR&TAF报告)。

可查询的气象台以黄色和红色小点在地图上表示。

将鼠标移到小点上方,可查看气象台名称。

然后点击查看天气观测和预报。

如需切换地图:点击带黑十字的绿色按钮放大地图;点击带横线的绿色按钮缩小地图;或者点击绿色箭头查看邻近地区的地图。


METAR-TAF: